FVMT weather

Mutoko Airport
Mutoko, Mashonaland East Province, Zimbabwe

Public forecast

Using degrees Celsius for public forecast. Weather courtesy of forecast.io.

Closest aviation weather report (METAR) to Mutoko Airport

Report is more than 2 hours old.

Closest report is Robert Gabriel Mugabe International Airport, 69.3 nm (128.3 km) WSW. Retrieved 2020/02/20 18:00 UTC (3 hours ago):

FVRG 201800Z 11005KT 9999 FEW040CB 22/16 Q1020 NOSIG

Closest aviation forecast (TAF) to Mutoko Airport

Closest forecast is Robert Gabriel Mugabe International Airport, 69.3 nm (128.3 km) WSW. Retrieved 2020/02/20 18:00 UTC (3 hours ago):

TAF FVRG 201600Z 2018/2124 08008KT CAVOK BECMG 2106/2108 SCT030 PROB30 TEMPO 2112/2118 9000 -TSRA FEW025CB BKN080 FM212000Z CAVOK